sensor_id;sensor_type;location;lat;lon;timestamp;P1;P2;P0
37290;PMS5003;23175;-33.706;151.094;2023-12-20T00:01:27;0;0;
37290;PMS5003;23175;-33.706;151.094;2023-12-20T00:03:58;0;0;
37290;PMS5003;23175;-33.706;151.094;2023-12-20T00:06:28;1;1;
37290;PMS5003;23175;-33.706;151.094;2023-12-20T00:08:59;0;0;
37290;PMS5003;23175;-33.706;151.094;2023-12-20T00:11:29;0;0;
37290;PMS5003;23175;-33.706;151.094;2023-12-20T00:14:00;0;0;
37290;PMS5003;23175;-33.706;151.094;2023-12-20T00:16:30;0;0;
37290;PMS5003;23175;-33.706;151.094;2023-12-20T00:19:00;0;0;
37290;PMS5003;23175;-33.706;151.094;2023-12-20T00:21:31;0;0;
37290;PMS5003;23175;-33.706;151.094;2023-12-20T00:24:00;1;1;
37290;PMS5003;23175;-33.706;151.094;2023-12-20T00:26:31;1;1;
37290;PMS5003;23175;-33.706;151.094;2023-12-20T00:29:01;4;4;
37290;PMS5003;23175;-33.706;151.094;2023-12-20T00:31:31;3;3;
37290;PMS5003;23175;-33.706;151.094;2023-12-20T00:34:00;0;0;
37290;PMS5003;23175;-33.706;151.094;2023-12-20T00:36:31;1;0;
37290;PMS5003;23175;-33.706;151.094;2023-12-20T00:39:01;3;1;
37290;PMS5003;23175;-33.706;151.094;2023-12-20T00:41:32;1;1;
37290;PMS5003;23175;-33.706;151.094;2023-12-20T00:44:02;3;2;
37290;PMS5003;23175;-33.706;151.094;2023-12-20T00:46:32;1;1;
37290;PMS5003;23175;-33.706;151.094;2023-12-20T00:49:03;1;1;
37290;PMS5003;23175;-33.706;151.094;2023-12-20T00:51:33;1;1;
37290;PMS5003;23175;-33.706;151.094;2023-12-20T00:54:05;0;0;
37290;PMS5003;23175;-33.706;151.094;2023-12-20T00:56:34;0;0;
37290;PMS5003;23175;-33.706;151.094;2023-12-20T00:59:05;2;1;
37290;PMS5003;23175;-33.706;151.094;2023-12-20T01:01:35;2;1;
37290;PMS5003;23175;-33.706;151.094;2023-12-20T01:04:06;0;0;
37290;PMS5003;23175;-33.706;151.094;2023-12-20T01:06:37;3;1;
37290;PMS5003;23175;-33.706;151.094;2023-12-20T01:09:07;0;0;
37290;PMS5003;23175;-33.706;151.094;2023-12-20T01:11:38;1;1;
37290;PMS5003;23175;-33.706;151.094;2023-12-20T01:14:09;2;0;
37290;PMS5003;23175;-33.706;151.094;2023-12-20T01:16:39;1;1;
37290;PMS5003;23175;-33.706;151.094;2023-12-20T01:19:11;0;0;
37290;PMS5003;23175;-33.706;151.094;2023-12-20T01:21:41;1;1;
37290;PMS5003;23175;-33.706;151.094;2023-12-20T01:24:11;3;1;
37290;PMS5003;23175;-33.706;151.094;2023-12-20T01:26:41;1;1;
37290;PMS5003;23175;-33.706;151.094;2023-12-20T01:29:11;1;1;
37290;PMS5003;23175;-33.706;151.094;2023-12-20T01:31:42;0;0;
37290;PMS5003;23175;-33.706;151.094;2023-12-20T01:34:11;1;1;
37290;PMS5003;23175;-33.706;151.094;2023-12-20T01:36:42;1;1;
37290;PMS5003;23175;-33.706;151.094;2023-12-20T01:39:12;0;0;
37290;PMS5003;23175;-33.706;151.094;2023-12-20T01:41:41;1;1;
37290;PMS5003;23175;-33.706;151.094;2023-12-20T01:44:12;0;0;
37290;PMS5003;23175;-33.706;151.094;2023-12-20T01:46:43;1;1;
37290;PMS5003;23175;-33.706;151.094;2023-12-20T01:49:14;1;1;
37290;PMS5003;23175;-33.706;151.094;2023-12-20T01:51:44;1;1;
37290;PMS5003;23175;-33.706;151.094;2023-12-20T01:54:14;1;1;
37290;PMS5003;23175;-33.706;151.094;2023-12-20T01:56:45;2;1;
37290;PMS5003;23175;-33.706;151.094;2023-12-20T01:59:17;1;1;
37290;PMS5003;23175;-33.706;151.094;2023-12-20T02:01:48;1;1;
37290;PMS5003;23175;-33.706;151.094;2023-12-20T02:04:17;0;0;
37290;PMS5003;23175;-33.706;151.094;2023-12-20T02:06:48;1;1;
37290;PMS5003;23175;-33.706;151.094;2023-12-20T02:09:21;1;0;
37290;PMS5003;23175;-33.706;151.094;2023-12-20T02:11:52;1;1;
37290;PMS5003;23175;-33.706;151.094;2023-12-20T02:14:23;1;0;
37290;PMS5003;23175;-33.706;151.094;2023-12-20T02:16:53;2;2;
37290;PMS5003;23175;-33.706;151.094;2023-12-20T02:19:23;1;1;
37290;PMS5003;23175;-33.706;151.094;2023-12-20T02:22:05;0;0;
37290;PMS5003;23175;-33.706;151.094;2023-12-20T02:24:37;0;0;
37290;PMS5003;23175;-33.706;151.094;2023-12-20T02:27:07;1;1;
37290;PMS5003;23175;-33.706;151.094;2023-12-20T02:29:38;2;1;
37290;PMS5003;23175;-33.706;151.094;2023-12-20T02:32:08;0;0;
37290;PMS5003;23175;-33.706;151.094;2023-12-20T02:34:39;0;0;
37290;PMS5003;23175;-33.706;151.094;2023-12-20T02:37:09;1;1;
37290;PMS5003;23175;-33.706;151.094;2023-12-20T02:39:39;1;1;
37290;PMS5003;23175;-33.706;151.094;2023-12-20T02:42:10;1;1;
37290;PMS5003;23175;-33.706;151.094;2023-12-20T02:44:41;2;1;
37290;PMS5003;23175;-33.706;151.094;2023-12-20T02:47:11;0;0;
37290;PMS5003;23175;-33.706;151.094;2023-12-20T02:49:42;1;1;
37290;PMS5003;23175;-33.706;151.094;2023-12-20T02:52:12;2;2;
37290;PMS5003;23175;-33.706;151.094;2023-12-20T02:54:42;1;1;
37290;PMS5003;23175;-33.706;151.094;2023-12-20T02:57:13;1;1;
37290;PMS5003;23175;-33.706;151.094;2023-12-20T02:59:42;3;2;
37290;PMS5003;23175;-33.706;151.094;2023-12-20T03:02:13;1;1;
37290;PMS5003;23175;-33.706;151.094;2023-12-20T03:04:42;4;2;
37290;PMS5003;23175;-33.706;151.094;2023-12-20T03:07:12;2;2;
37290;PMS5003;23175;-33.706;151.094;2023-12-20T03:09:42;1;1;
37290;PMS5003;23175;-33.706;151.094;2023-12-20T03:12:12;0;0;
37290;PMS5003;23175;-33.706;151.094;2023-12-20T03:14:43;4;2;
37290;PMS5003;23175;-33.706;151.094;2023-12-20T03:17:14;2;2;
37290;PMS5003;23175;-33.706;151.094;2023-12-20T03:19:44;2;2;
37290;PMS5003;23175;-33.706;151.094;2023-12-20T03:22:14;2;2;
37290;PMS5003;23175;-33.706;151.094;2023-12-20T03:24:43;1;1;
37290;PMS5003;23175;-33.706;151.094;2023-12-20T03:27:14;1;1;
37290;PMS5003;23175;-33.706;151.094;2023-12-20T03:29:44;2;2;
37290;PMS5003;23175;-33.706;151.094;2023-12-20T03:32:14;2;2;
37290;PMS5003;23175;-33.706;151.094;2023-12-20T03:34:45;1;1;
37290;PMS5003;23175;-33.706;151.094;2023-12-20T03:37:15;2;2;
37290;PMS5003;23175;-33.706;151.094;2023-12-20T03:39:45;1;1;
37290;PMS5003;23175;-33.706;151.094;2023-12-20T03:42:15;2;2;
37290;PMS5003;23175;-33.706;151.094;2023-12-20T03:44:45;1;1;
37290;PMS5003;23175;-33.706;151.094;2023-12-20T03:47:15;1;1;
37290;PMS5003;23175;-33.706;151.094;2023-12-20T03:49:45;0;0;
37290;PMS5003;23175;-33.706;151.094;2023-12-20T03:52:15;4;4;
37290;PMS5003;23175;-33.706;151.094;2023-12-20T03:54:45;1;1;
37290;PMS5003;23175;-33.706;151.094;2023-12-20T03:57:15;2;1;
37290;PMS5003;23175;-33.706;151.094;2023-12-20T03:59:46;0;0;
37290;PMS5003;23175;-33.706;151.094;2023-12-20T04:02:15;1;1;
37290;PMS5003;23175;-33.706;151.094;2023-12-20T04:04:46;1;1;
37290;PMS5003;23175;-33.706;151.094;2023-12-20T04:07:16;3;3;
37290;PMS5003;23175;-33.706;151.094;2023-12-20T04:09:45;2;2;
37290;PMS5003;23175;-33.706;151.094;2023-12-20T04:12:15;0;0;
37290;PMS5003;23175;-33.706;151.094;2023-12-20T04:14:46;1;1;
37290;PMS5003;23175;-33.706;151.094;2023-12-20T04:17:15;1;1;
37290;PMS5003;23175;-33.706;151.094;2023-12-20T04:19:46;2;2;
37290;PMS5003;23175;-33.706;151.094;2023-12-20T04:22:16;0;0;
37290;PMS5003;23175;-33.706;151.094;2023-12-20T04:24:46;3;2;
37290;PMS5003;23175;-33.706;151.094;2023-12-20T04:27:16;1;1;
37290;PMS5003;23175;-33.706;151.094;2023-12-20T04:29:47;1;1;
37290;PMS5003;23175;-33.706;151.094;2023-12-20T04:32:17;1;1;
37290;PMS5003;23175;-33.706;151.094;2023-12-20T04:34:47;0;0;
37290;PMS5003;23175;-33.706;151.094;2023-12-20T04:37:16;0;0;
37290;PMS5003;23175;-33.706;151.094;2023-12-20T04:39:46;1;1;
37290;PMS5003;23175;-33.706;151.094;2023-12-20T04:42:16;0;0;
37290;PMS5003;23175;-33.706;151.094;2023-12-20T04:44:47;1;1;
37290;PMS5003;23175;-33.706;151.094;2023-12-20T04:47:16;2;1;
37290;PMS5003;23175;-33.706;151.094;2023-12-20T04:49:47;2;0;
37290;PMS5003;23175;-33.706;151.094;2023-12-20T04:52:17;2;2;
37290;PMS5003;23175;-33.706;151.094;2023-12-20T04:54:47;0;0;
37290;PMS5003;23175;-33.706;151.094;2023-12-20T04:57:17;0;0;
37290;PMS5003;23175;-33.706;151.094;2023-12-20T04:59:47;2;1;
37290;PMS5003;23175;-33.706;151.094;2023-12-20T05:02:18;2;0;
37290;PMS5003;23175;-33.706;151.094;2023-12-20T05:04:48;1;1;
37290;PMS5003;23175;-33.706;151.094;2023-12-20T05:07:18;0;0;
37290;PMS5003;23175;-33.706;151.094;2023-12-20T05:09:48;1;1;
37290;PMS5003;23175;-33.706;151.094;2023-12-20T05:12:18;1;1;
37290;PMS5003;23175;-33.706;151.094;2023-12-20T05:14:47;0;0;
37290;PMS5003;23175;-33.706;151.094;2023-12-20T05:17:19;0;0;
37290;PMS5003;23175;-33.706;151.094;2023-12-20T05:19:49;0;0;
37290;PMS5003;23175;-33.706;151.094;2023-12-20T05:22:19;0;0;
37290;PMS5003;23175;-33.706;151.094;2023-12-20T05:24:49;2;2;
37290;PMS5003;23175;-33.706;151.094;2023-12-20T05:27:19;0;0;
37290;PMS5003;23175;-33.706;151.094;2023-12-20T05:29:50;0;0;
37290;PMS5003;23175;-33.706;151.094;2023-12-20T05:32:20;0;0;
37290;PMS5003;23175;-33.706;151.094;2023-12-20T05:34:51;1;1;
37290;PMS5003;23175;-33.706;151.094;2023-12-20T05:37:21;2;1;
37290;PMS5003;23175;-33.706;151.094;2023-12-20T05:39:51;0;0;
37290;PMS5003;23175;-33.706;151.094;2023-12-20T05:42:22;0;0;
37290;PMS5003;23175;-33.706;151.094;2023-12-20T05:44:52;1;0;
37290;PMS5003;23175;-33.706;151.094;2023-12-20T05:47:23;1;1;
37290;PMS5003;23175;-33.706;151.094;2023-12-20T05:49:52;0;0;
37290;PMS5003;23175;-33.706;151.094;2023-12-20T05:52:23;1;1;
37290;PMS5003;23175;-33.706;151.094;2023-12-20T05:54:53;0;0;
37290;PMS5003;23175;-33.706;151.094;2023-12-20T05:57:23;0;0;
37290;PMS5003;23175;-33.706;151.094;2023-12-20T05:59:53;1;1;
37290;PMS5003;23175;-33.706;151.094;2023-12-20T06:02:25;0;0;
37290;PMS5003;23175;-33.706;151.094;2023-12-20T06:04:55;1;1;
37290;PMS5003;23175;-33.706;151.094;2023-12-20T06:07:25;0;0;
37290;PMS5003;23175;-33.706;151.094;2023-12-20T06:09:56;0;0;
37290;PMS5003;23175;-33.706;151.094;2023-12-20T06:12:26;0;0;
37290;PMS5003;23175;-33.706;151.094;2023-12-20T06:14:56;0;0;
37290;PMS5003;23175;-33.706;151.094;2023-12-20T06:17:26;3;1;
37290;PMS5003;23175;-33.706;151.094;2023-12-20T06:19:56;0;0;
37290;PMS5003;23175;-33.706;151.094;2023-12-20T06:22:31;0;0;
37290;PMS5003;23175;-33.706;151.094;2023-12-20T06:25:02;0;0;
37290;PMS5003;23175;-33.706;151.094;2023-12-20T06:27:33;1;1;
37290;PMS5003;23175;-33.706;151.094;2023-12-20T06:30:02;0;0;
37290;PMS5003;23175;-33.706;151.094;2023-12-20T06:32:33;0;0;
37290;PMS5003;23175;-33.706;151.094;2023-12-20T06:35:04;0;0;
37290;PMS5003;23175;-33.706;151.094;2023-12-20T06:37:35;0;0;
37290;PMS5003;23175;-33.706;151.094;2023-12-20T06:40:06;0;0;
37290;PMS5003;23175;-33.706;151.094;2023-12-20T06:42:36;3;1;
37290;PMS5003;23175;-33.706;151.094;2023-12-20T06:45:07;0;0;
37290;PMS5003;23175;-33.706;151.094;2023-12-20T06:47:38;0;0;
37290;PMS5003;23175;-33.706;151.094;2023-12-20T06:50:09;1;1;
37290;PMS5003;23175;-33.706;151.094;2023-12-20T06:52:39;0;0;
37290;PMS5003;23175;-33.706;151.094;2023-12-20T06:55:09;0;0;
37290;PMS5003;23175;-33.706;151.094;2023-12-20T06:57:39;0;0;
37290;PMS5003;23175;-33.706;151.094;2023-12-20T07:00:13;1;1;
37290;PMS5003;23175;-33.706;151.094;2023-12-20T07:02:45;0;0;
37290;PMS5003;23175;-33.706;151.094;2023-12-20T07:05:16;0;0;
37290;PMS5003;23175;-33.706;151.094;2023-12-20T07:07:46;0;0;
37290;PMS5003;23175;-33.706;151.094;2023-12-20T07:10:16;1;1;
37290;PMS5003;23175;-33.706;151.094;2023-12-20T07:12:46;0;0;
37290;PMS5003;23175;-33.706;151.094;2023-12-20T07:15:16;0;0;
37290;PMS5003;23175;-33.706;151.094;2023-12-20T07:17:46;0;0;
37290;PMS5003;23175;-33.706;151.094;2023-12-20T07:20:16;1;1;
37290;PMS5003;23175;-33.706;151.094;2023-12-20T07:22:46;1;1;
37290;PMS5003;23175;-33.706;151.094;2023-12-20T07:25:16;0;0;
37290;PMS5003;23175;-33.706;151.094;2023-12-20T07:27:46;0;0;
37290;PMS5003;23175;-33.706;151.094;2023-12-20T07:30:16;3;1;
37290;PMS5003;23175;-33.706;151.094;2023-12-20T07:32:46;2;1;
37290;PMS5003;23175;-33.706;151.094;2023-12-20T07:35:16;0;0;
37290;PMS5003;23175;-33.706;151.094;2023-12-20T07:37:46;2;2;
37290;PMS5003;23175;-33.706;151.094;2023-12-20T07:40:16;0;0;
37290;PMS5003;23175;-33.706;151.094;2023-12-20T07:42:47;3;3;
37290;PMS5003;23175;-33.706;151.094;2023-12-20T07:45:16;1;1;
37290;PMS5003;23175;-33.706;151.094;2023-12-20T07:47:47;1;1;
37290;PMS5003;23175;-33.706;151.094;2023-12-20T07:50:17;1;1;
37290;PMS5003;23175;-33.706;151.094;2023-12-20T07:52:47;2;2;
37290;PMS5003;23175;-33.706;151.094;2023-12-20T07:55:18;1;1;
37290;PMS5003;23175;-33.706;151.094;2023-12-20T07:57:50;2;2;
37290;PMS5003;23175;-33.706;151.094;2023-12-20T08:00:21;2;1;
37290;PMS5003;23175;-33.706;151.094;2023-12-20T08:02:52;4;2;
37290;PMS5003;23175;-33.706;151.094;2023-12-20T08:05:22;1;1;
37290;PMS5003;23175;-33.706;151.094;2023-12-20T08:07:51;1;1;
37290;PMS5003;23175;-33.706;151.094;2023-12-20T08:10:21;0;0;
37290;PMS5003;23175;-33.706;151.094;2023-12-20T08:12:51;4;4;
37290;PMS5003;23175;-33.706;151.094;2023-12-20T08:15:22;4;3;
37290;PMS5003;23175;-33.706;151.094;2023-12-20T08:17:52;3;2;
37290;PMS5003;23175;-33.706;151.094;2023-12-20T08:20:23;2;2;
37290;PMS5003;23175;-33.706;151.094;2023-12-20T08:22:55;2;2;
37290;PMS5003;23175;-33.706;151.094;2023-12-20T08:25:24;1;1;
37290;PMS5003;23175;-33.706;151.094;2023-12-20T08:27:55;1;1;
37290;PMS5003;23175;-33.706;151.094;2023-12-20T08:30:25;3;3;
37290;PMS5003;23175;-33.706;151.094;2023-12-20T08:32:57;2;2;
37290;PMS5003;23175;-33.706;151.094;2023-12-20T08:35:30;1;1;
37290;PMS5003;23175;-33.706;151.094;2023-12-20T08:38:00;0;0;
37290;PMS5003;23175;-33.706;151.094;2023-12-20T08:40:29;4;4;
37290;PMS5003;23175;-33.706;151.094;2023-12-20T08:43:00;3;2;
37290;PMS5003;23175;-33.706;151.094;2023-12-20T08:45:30;5;2;
37290;PMS5003;23175;-33.706;151.094;2023-12-20T08:48:00;2;2;
37290;PMS5003;23175;-33.706;151.094;2023-12-20T08:50:30;6;3;
37290;PMS5003;23175;-33.706;151.094;2023-12-20T08:53:01;2;2;
37290;PMS5003;23175;-33.706;151.094;2023-12-20T08:55:31;2;2;
37290;PMS5003;23175;-33.706;151.094;2023-12-20T08:58:02;5;3;
37290;PMS5003;23175;-33.706;151.094;2023-12-20T09:00:35;1;1;
37290;PMS5003;23175;-33.706;151.094;2023-12-20T09:03:05;3;3;
37290;PMS5003;23175;-33.706;151.094;2023-12-20T09:05:35;5;4;
37290;PMS5003;23175;-33.706;151.094;2023-12-20T09:08:06;2;2;
37290;PMS5003;23175;-33.706;151.094;2023-12-20T09:10:38;10;7;
37290;PMS5003;23175;-33.706;151.094;2023-12-20T09:13:08;1;1;
37290;PMS5003;23175;-33.706;151.094;2023-12-20T09:15:40;10;4;
37290;PMS5003;23175;-33.706;151.094;2023-12-20T09:18:10;3;1;
37290;PMS5003;23175;-33.706;151.094;2023-12-20T09:20:40;2;2;
37290;PMS5003;23175;-33.706;151.094;2023-12-20T09:23:10;4;3;
37290;PMS5003;23175;-33.706;151.094;2023-12-20T09:25:40;1;1;
37290;PMS5003;23175;-33.706;151.094;2023-12-20T09:28:12;4;2;
37290;PMS5003;23175;-33.706;151.094;2023-12-20T09:30:42;2;2;
37290;PMS5003;23175;-33.706;151.094;2023-12-20T09:33:12;1;1;
37290;PMS5003;23175;-33.706;151.094;2023-12-20T09:35:44;2;2;
37290;PMS5003;23175;-33.706;151.094;2023-12-20T09:38:13;4;3;
37290;PMS5003;23175;-33.706;151.094;2023-12-20T09:40:44;3;2;
37290;PMS5003;23175;-33.706;151.094;2023-12-20T09:43:15;3;3;
37290;PMS5003;23175;-33.706;151.094;2023-12-20T09:45:47;1;1;
37290;PMS5003;23175;-33.706;151.094;2023-12-20T09:48:20;4;4;
37290;PMS5003;23175;-33.706;151.094;2023-12-20T09:50:51;4;4;
37290;PMS5003;23175;-33.706;151.094;2023-12-20T09:53:22;5;5;
37290;PMS5003;23175;-33.706;151.094;2023-12-20T09:55:53;6;5;
37290;PMS5003;23175;-33.706;151.094;2023-12-20T09:58:26;3;3;
37290;PMS5003;23175;-33.706;151.094;2023-12-20T10:00:56;5;4;
37290;PMS5003;23175;-33.706;151.094;2023-12-20T10:03:28;5;5;
37290;PMS5003;23175;-33.706;151.094;2023-12-20T10:05:59;5;5;
37290;PMS5003;23175;-33.706;151.094;2023-12-20T10:08:30;6;4;
37290;PMS5003;23175;-33.706;151.094;2023-12-20T10:11:01;5;4;
37290;PMS5003;23175;-33.706;151.094;2023-12-20T10:13:31;7;6;
37290;PMS5003;23175;-33.706;151.094;2023-12-20T10:16:02;6;5;
37290;PMS5003;23175;-33.706;151.094;2023-12-20T10:18:32;6;6;
37290;PMS5003;23175;-33.706;151.094;2023-12-20T10:21:03;5;5;
37290;PMS5003;23175;-33.706;151.094;2023-12-20T10:23:33;5;5;
37290;PMS5003;23175;-33.706;151.094;2023-12-20T10:26:04;6;6;
37290;PMS5003;23175;-33.706;151.094;2023-12-20T10:28:34;3;3;
37290;PMS5003;23175;-33.706;151.094;2023-12-20T10:31:12;5;5;
37290;PMS5003;23175;-33.706;151.094;2023-12-20T10:33:56;4;4;
37290;PMS5003;23175;-33.706;151.094;2023-12-20T10:36:27;4;4;
37290;PMS5003;23175;-33.706;151.094;2023-12-20T10:38:58;5;5;
37290;PMS5003;23175;-33.706;151.094;2023-12-20T10:41:30;11;7;
37290;PMS5003;23175;-33.706;151.094;2023-12-20T10:44:01;6;4;
37290;PMS5003;23175;-33.706;151.094;2023-12-20T10:46:33;3;3;
37290;PMS5003;23175;-33.706;151.094;2023-12-20T10:49:03;3;2;
37290;PMS5003;23175;-33.706;151.094;2023-12-20T10:51:36;4;4;
37290;PMS5003;23175;-33.706;151.094;2023-12-20T10:54:08;7;5;
37290;PMS5003;23175;-33.706;151.094;2023-12-20T10:56:39;6;6;
37290;PMS5003;23175;-33.706;151.094;2023-12-20T10:59:12;7;5;
37290;PMS5003;23175;-33.706;151.094;2023-12-20T11:01:47;8;8;
37290;PMS5003;23175;-33.706;151.094;2023-12-20T11:04:19;3;3;
37290;PMS5003;23175;-33.706;151.094;2023-12-20T11:06:58;4;4;
37290;PMS5003;23175;-33.706;151.094;2023-12-20T11:09:35;4;4;
37290;PMS5003;23175;-33.706;151.094;2023-12-20T11:12:13;6;5;
37290;PMS5003;23175;-33.706;151.094;2023-12-20T11:14:48;4;4;
37290;PMS5003;23175;-33.706;151.094;2023-12-20T11:17:20;4;4;
37290;PMS5003;23175;-33.706;151.094;2023-12-20T11:20:12;3;3;
37290;PMS5003;23175;-33.706;151.094;2023-12-20T11:22:52;2;2;
37290;PMS5003;23175;-33.706;151.094;2023-12-20T11:25:22;4;4;
37290;PMS5003;23175;-33.706;151.094;2023-12-20T11:28:07;6;4;
37290;PMS5003;23175;-33.706;151.094;2023-12-20T11:30:43;2;2;
37290;PMS5003;23175;-33.706;151.094;2023-12-20T11:33:16;4;4;
37290;PMS5003;23175;-33.706;151.094;2023-12-20T11:35:52;4;4;
37290;PMS5003;23175;-33.706;151.094;2023-12-20T11:38:26;4;3;
37290;PMS5003;23175;-33.706;151.094;2023-12-20T11:41:05;2;2;
37290;PMS5003;23175;-33.706;151.094;2023-12-20T11:43:35;4;4;
37290;PMS5003;23175;-33.706;151.094;2023-12-20T11:46:08;1;1;
37290;PMS5003;23175;-33.706;151.094;2023-12-20T11:48:40;5;4;
37290;PMS5003;23175;-33.706;151.094;2023-12-20T11:51:14;1;1;
37290;PMS5003;23175;-33.706;151.094;2023-12-20T11:53:44;2;2;
37290;PMS5003;23175;-33.706;151.094;2023-12-20T11:56:19;1;1;
37290;PMS5003;23175;-33.706;151.094;2023-12-20T11:58:49;2;2;
37290;PMS5003;23175;-33.706;151.094;2023-12-20T12:01:20;1;1;
37290;PMS5003;23175;-33.706;151.094;2023-12-20T12:04:02;4;3;
37290;PMS5003;23175;-33.706;151.094;2023-12-20T12:06:33;4;2;
37290;PMS5003;23175;-33.706;151.094;2023-12-20T12:09:03;3;3;
37290;PMS5003;23175;-33.706;151.094;2023-12-20T12:11:34;0;0;
37290;PMS5003;23175;-33.706;151.094;2023-12-20T12:14:04;4;3;
37290;PMS5003;23175;-33.706;151.094;2023-12-20T12:16:35;0;0;
37290;PMS5003;23175;-33.706;151.094;2023-12-20T12:19:06;3;2;
37290;PMS5003;23175;-33.706;151.094;2023-12-20T12:21:48;0;0;
37290;PMS5003;23175;-33.706;151.094;2023-12-20T12:24:20;0;0;
37290;PMS5003;23175;-33.706;151.094;2023-12-20T12:26:51;2;2;
37290;PMS5003;23175;-33.706;151.094;2023-12-20T12:29:25;4;3;
37290;PMS5003;23175;-33.706;151.094;2023-12-20T12:31:55;4;1;
37290;PMS5003;23175;-33.706;151.094;2023-12-20T12:34:25;3;1;
37290;PMS5003;23175;-33.706;151.094;2023-12-20T12:36:57;3;1;
37290;PMS5003;23175;-33.706;151.094;2023-12-20T12:39:28;2;2;
37290;PMS5003;23175;-33.706;151.094;2023-12-20T12:42:00;1;1;
37290;PMS5003;23175;-33.706;151.094;2023-12-20T12:44:30;2;1;
37290;PMS5003;23175;-33.706;151.094;2023-12-20T12:47:00;1;1;
37290;PMS5003;23175;-33.706;151.094;2023-12-20T12:49:33;1;1;
37290;PMS5003;23175;-33.706;151.094;2023-12-20T12:52:05;3;1;
37290;PMS5003;23175;-33.706;151.094;2023-12-20T12:54:35;1;1;
37290;PMS5003;23175;-33.706;151.094;2023-12-20T12:57:07;0;0;
37290;PMS5003;23175;-33.706;151.094;2023-12-20T12:59:38;2;2;
37290;PMS5003;23175;-33.706;151.094;2023-12-20T13:02:11;1;1;
37290;PMS5003;23175;-33.706;151.094;2023-12-20T13:04:42;1;1;
37290;PMS5003;23175;-33.706;151.094;2023-12-20T13:07:12;4;4;
37290;PMS5003;23175;-33.706;151.094;2023-12-20T13:09:42;1;1;
37290;PMS5003;23175;-33.706;151.094;2023-12-20T13:12:13;1;1;
37290;PMS5003;23175;-33.706;151.094;2023-12-20T13:14:43;2;0;
37290;PMS5003;23175;-33.706;151.094;2023-12-20T13:17:14;1;1;
37290;PMS5003;23175;-33.706;151.094;2023-12-20T13:19:46;1;1;
37290;PMS5003;23175;-33.706;151.094;2023-12-20T13:22:16;1;1;
37290;PMS5003;23175;-33.706;151.094;2023-12-20T13:24:47;2;2;
37290;PMS5003;23175;-33.706;151.094;2023-12-20T13:27:18;1;1;
37290;PMS5003;23175;-33.706;151.094;2023-12-20T13:29:48;0;0;
37290;PMS5003;23175;-33.706;151.094;2023-12-20T13:32:20;1;1;
37290;PMS5003;23175;-33.706;151.094;2023-12-20T13:34:51;2;1;
37290;PMS5003;23175;-33.706;151.094;2023-12-20T13:37:21;2;1;
37290;PMS5003;23175;-33.706;151.094;2023-12-20T13:39:52;1;1;
37290;PMS5003;23175;-33.706;151.094;2023-12-20T13:42:22;1;1;
37290;PMS5003;23175;-33.706;151.094;2023-12-20T13:44:53;2;0;
37290;PMS5003;23175;-33.706;151.094;2023-12-20T13:47:23;0;0;
37290;PMS5003;23175;-33.706;151.094;2023-12-20T13:49:54;1;1;
37290;PMS5003;23175;-33.706;151.094;2023-12-20T13:52:23;0;0;
37290;PMS5003;23175;-33.706;151.094;2023-12-20T13:54:54;1;1;
37290;PMS5003;23175;-33.706;151.094;2023-12-20T13:57:24;1;1;
37290;PMS5003;23175;-33.706;151.094;2023-12-20T13:59:56;0;0;
37290;PMS5003;23175;-33.706;151.094;2023-12-20T14:02:27;0;0;
37290;PMS5003;23175;-33.706;151.094;2023-12-20T14:04:57;1;1;
37290;PMS5003;23175;-33.706;151.094;2023-12-20T14:07:30;1;1;
37290;PMS5003;23175;-33.706;151.094;2023-12-20T14:09:59;0;0;
37290;PMS5003;23175;-33.706;151.094;2023-12-20T14:12:31;1;1;
37290;PMS5003;23175;-33.706;151.094;2023-12-20T14:15:01;0;0;
37290;PMS5003;23175;-33.706;151.094;2023-12-20T14:17:31;1;1;
37290;PMS5003;23175;-33.706;151.094;2023-12-20T14:20:02;0;0;
37290;PMS5003;23175;-33.706;151.094;2023-12-20T14:22:34;1;1;
37290;PMS5003;23175;-33.706;151.094;2023-12-20T14:25:05;0;0;
37290;PMS5003;23175;-33.706;151.094;2023-12-20T14:27:40;1;1;
37290;PMS5003;23175;-33.706;151.094;2023-12-20T14:30:12;0;0;
37290;PMS5003;23175;-33.706;151.094;2023-12-20T14:32:42;3;0;
37290;PMS5003;23175;-33.706;151.094;2023-12-20T14:35:14;0;0;
37290;PMS5003;23175;-33.706;151.094;2023-12-20T14:37:46;1;1;
37290;PMS5003;23175;-33.706;151.094;2023-12-20T14:40:18;0;0;
37290;PMS5003;23175;-33.706;151.094;2023-12-20T14:42:48;0;0;
37290;PMS5003;23175;-33.706;151.094;2023-12-20T14:45:21;1;0;
37290;PMS5003;23175;-33.706;151.094;2023-12-20T14:47:51;2;0;
37290;PMS5003;23175;-33.706;151.094;2023-12-20T14:50:22;1;1;
37290;PMS5003;23175;-33.706;151.094;2023-12-20T14:52:55;0;0;
37290;PMS5003;23175;-33.706;151.094;2023-12-20T14:55:24;1;0;
37290;PMS5003;23175;-33.706;151.094;2023-12-20T14:57:56;2;1;
37290;PMS5003;23175;-33.706;151.094;2023-12-20T15:00:27;0;0;
37290;PMS5003;23175;-33.706;151.094;2023-12-20T15:02:57;0;0;
37290;PMS5003;23175;-33.706;151.094;2023-12-20T15:05:30;0;0;
37290;PMS5003;23175;-33.706;151.094;2023-12-20T15:08:02;0;0;
37290;PMS5003;23175;-33.706;151.094;2023-12-20T15:10:34;2;1;
37290;PMS5003;23175;-33.706;151.094;2023-12-20T15:13:05;0;0;
37290;PMS5003;23175;-33.706;151.094;2023-12-20T15:15:35;0;0;
37290;PMS5003;23175;-33.706;151.094;2023-12-20T15:18:07;0;0;
37290;PMS5003;23175;-33.706;151.094;2023-12-20T15:20:38;0;0;
37290;PMS5003;23175;-33.706;151.094;2023-12-20T15:23:10;0;0;
37290;PMS5003;23175;-33.706;151.094;2023-12-20T15:25:41;0;0;
37290;PMS5003;23175;-33.706;151.094;2023-12-20T15:28:12;0;0;
37290;PMS5003;23175;-33.706;151.094;2023-12-20T15:30:43;1;1;
37290;PMS5003;23175;-33.706;151.094;2023-12-20T15:33:13;0;0;
37290;PMS5003;23175;-33.706;151.094;2023-12-20T15:35:44;0;0;
37290;PMS5003;23175;-33.706;151.094;2023-12-20T15:38:15;0;0;
37290;PMS5003;23175;-33.706;151.094;2023-12-20T15:40:47;0;0;
37290;PMS5003;23175;-33.706;151.094;2023-12-20T15:43:18;0;0;
37290;PMS5003;23175;-33.706;151.094;2023-12-20T15:45:48;0;0;
37290;PMS5003;23175;-33.706;151.094;2023-12-20T15:48:19;2;1;
37290;PMS5003;23175;-33.706;151.094;2023-12-20T15:50:49;0;0;
37290;PMS5003;23175;-33.706;151.094;2023-12-20T15:53:20;0;0;
37290;PMS5003;23175;-33.706;151.094;2023-12-20T15:55:50;1;1;
37290;PMS5003;23175;-33.706;151.094;2023-12-20T15:58:21;0;0;
37290;PMS5003;23175;-33.706;151.094;2023-12-20T16:00:51;0;0;
37290;PMS5003;23175;-33.706;151.094;2023-12-20T16:03:22;0;0;
37290;PMS5003;23175;-33.706;151.094;2023-12-20T16:05:52;0;0;
37290;PMS5003;23175;-33.706;151.094;2023-12-20T16:08:22;0;0;
37290;PMS5003;23175;-33.706;151.094;2023-12-20T16:10:53;0;0;
37290;PMS5003;23175;-33.706;151.094;2023-12-20T16:13:23;0;0;
37290;PMS5003;23175;-33.706;151.094;2023-12-20T16:15:54;1;1;
37290;PMS5003;23175;-33.706;151.094;2023-12-20T16:18:25;0;0;
37290;PMS5003;23175;-33.706;151.094;2023-12-20T16:20:55;0;0;
37290;PMS5003;23175;-33.706;151.094;2023-12-20T16:23:25;0;0;
37290;PMS5003;23175;-33.706;151.094;2023-12-20T16:25:56;1;0;